createdAt,value
2019-03-31T00:02:16.681Z,59.10
2019-03-31T00:04:55.659Z,51.97
2019-03-31T00:07:44.814Z,48.33
2019-03-31T00:10:26.298Z,48.57
2019-03-31T00:16:02.993Z,46.07
2019-03-31T00:18:48.411Z,45.87
2019-03-31T00:21:28.596Z,45.37
2019-03-31T00:24:09.130Z,45.70
2019-03-31T00:26:48.319Z,45.87
2019-03-31T00:29:28.577Z,44.93
2019-03-31T00:32:06.581Z,44.23
2019-03-31T00:34:53.108Z,44.57
2019-03-31T00:37:39.484Z,43.83
2019-03-31T00:40:12.434Z,42.97
2019-03-31T00:42:41.998Z,43.20
2019-03-31T00:45:11.554Z,44.03
2019-03-31T00:47:41.130Z,44.03
2019-03-31T00:50:10.698Z,44.90
2019-03-31T00:52:41.226Z,43.97
2019-03-31T00:55:10.781Z,44.33
2019-03-31T00:57:40.362Z,43.10
2019-03-31T01:00:11.503Z,43.43
2019-03-31T01:02:42.631Z,42.80
2019-03-31T01:05:12.200Z,43.00
2019-03-31T01:07:41.774Z,43.60
2019-03-31T01:10:11.689Z,44.10
2019-03-31T01:12:41.243Z,43.27
2019-03-31T01:15:12.404Z,44.10
2019-03-31T01:17:41.975Z,42.33
2019-03-31T01:20:11.534Z,41.47
2019-03-31T01:22:41.112Z,43.70
2019-03-31T01:25:11.574Z,43.20
2019-03-31T01:27:41.451Z,44.70
2019-03-31T01:30:12.810Z,42.33
2019-03-31T01:32:42.795Z,44.30
2019-03-31T01:35:12.550Z,45.10
2019-03-31T01:37:42.138Z,44.73
2019-03-31T01:40:12.003Z,44.40
2019-03-31T01:42:41.563Z,42.70
2019-03-31T01:45:12.703Z,44.80
2019-03-31T01:47:42.271Z,45.17
2019-03-31T01:50:12.758Z,44.67
2019-03-31T01:52:42.380Z,43.70
2019-03-31T01:55:12.027Z,44.13
2019-03-31T01:57:41.604Z,44.17
2019-03-31T02:00:29.281Z,43.40
2019-03-31T02:02:59.102Z,43.07
2019-03-31T02:05:28.682Z,43.57
2019-03-31T02:07:58.247Z,41.77
2019-03-31T02:10:27.829Z,44.13
2019-03-31T02:12:57.394Z,43.47
2019-03-31T02:15:26.987Z,41.37
2019-03-31T02:17:56.553Z,41.30
2019-03-31T02:20:26.126Z,42.43
2019-03-31T02:22:55.797Z,45.37
2019-03-31T02:25:25.373Z,43.40
2019-03-31T02:27:55.090Z,40.47
2019-03-31T02:30:24.645Z,41.10
2019-03-31T02:32:54.226Z,41.07
2019-03-31T02:35:23.807Z,44.10
2019-03-31T02:37:53.423Z,42.57
2019-03-31T02:40:23.052Z,42.93
2019-03-31T02:42:52.954Z,42.77
2019-03-31T02:45:22.522Z,44.00
2019-03-31T02:47:52.576Z,43.80
2019-03-31T02:50:46.113Z,43.40
2019-03-31T02:53:16.767Z,42.43
2019-03-31T02:55:46.324Z,42.40
2019-03-31T02:58:16.329Z,46.97
2019-03-31T03:00:46.186Z,44.77
2019-03-31T03:03:16.007Z,42.90
2019-03-31T03:05:46.406Z,46.30
2019-03-31T03:08:17.659Z,45.07
2019-03-31T03:10:48.274Z,45.23
2019-03-31T03:13:17.840Z,48.60
2019-03-31T03:16:08.899Z,48.17
2019-03-31T03:18:38.560Z,44.57
2019-03-31T03:21:08.204Z,43.40
2019-03-31T03:23:37.887Z,46.03
2019-03-31T03:26:07.444Z,46.63
2019-03-31T03:28:37.060Z,47.80
2019-03-31T03:31:14.545Z,50.33
2019-03-31T03:33:37.808Z,49.50
2019-03-31T03:36:07.398Z,52.83
2019-03-31T03:38:36.952Z,49.53
2019-03-31T03:41:06.533Z,46.43
2019-03-31T03:43:53.546Z,47.03
2019-03-31T03:46:07.451Z,45.77
2019-03-31T03:48:37.004Z,45.77
2019-03-31T03:51:06.575Z,46.63
2019-03-31T03:53:36.143Z,46.10
2019-03-31T03:56:05.700Z,54.47
2019-03-31T03:58:35.291Z,56.10
2019-03-31T04:01:06.439Z,54.63
2019-03-31T04:03:36.040Z,63.87
2019-03-31T04:06:24.976Z,64.17
2019-03-31T04:08:54.731Z,60.13
2019-03-31T04:11:25.184Z,49.60
2019-03-31T04:13:54.769Z,52.37
2019-03-31T04:16:24.354Z,55.77
2019-03-31T04:18:53.948Z,54.60
2019-03-31T04:21:23.566Z,56.63
2019-03-31T04:23:53.109Z,55.00
2019-03-31T04:26:23.967Z,58.73
2019-03-31T04:28:53.535Z,56.83
2019-03-31T04:31:23.101Z,58.33
2019-03-31T04:33:53.256Z,68.23
2019-03-31T04:36:23.191Z,73.13
2019-03-31T04:38:52.802Z,69.07
2019-03-31T04:41:22.352Z,71.47
2019-03-31T04:43:51.922Z,70.03
2019-03-31T04:46:21.495Z,69.23
2019-03-31T04:48:52.843Z,68.73
2019-03-31T04:51:22.478Z,68.17
2019-03-31T04:53:52.023Z,68.23
2019-03-31T04:56:21.602Z,68.07
2019-03-31T04:58:51.170Z,67.87
2019-03-31T05:01:20.734Z,64.63
2019-03-31T05:04:04.049Z,65.60
2019-03-31T05:06:21.672Z,72.00
2019-03-31T05:08:51.280Z,67.37
2019-03-31T05:11:20.854Z,63.50
2019-03-31T05:13:51.535Z,70.17
2019-03-31T05:16:21.099Z,69.10
2019-03-31T05:18:50.677Z,67.10
2019-03-31T05:21:20.317Z,64.47
2019-03-31T05:23:49.889Z,68.20
2019-03-31T05:26:19.451Z,63.97
2019-03-31T05:28:49.157Z,63.20
2019-03-31T05:31:19.715Z,68.50
2019-03-31T05:33:49.314Z,74.20
2019-03-31T05:36:18.873Z,74.17
2019-03-31T05:38:48.438Z,69.93
2019-03-31T05:41:18.036Z,71.07
2019-03-31T05:43:47.584Z,63.90
2019-03-31T05:46:17.194Z,64.73
2019-03-31T05:48:46.740Z,53.00
2019-03-31T05:51:16.315Z,38.47
2019-03-31T05:53:45.930Z,38.00
2019-03-31T05:56:15.483Z,35.50
2019-03-31T05:58:45.224Z,38.20
2019-03-31T06:01:15.199Z,38.47
2019-03-31T06:03:44.785Z,37.57
2019-03-31T06:06:14.374Z,39.73
2019-03-31T06:08:44.931Z,39.90
2019-03-31T06:11:14.547Z,41.80
2019-03-31T06:13:44.107Z,40.43
2019-03-31T06:16:13.679Z,39.67
2019-03-31T06:18:43.248Z,42.50
2019-03-31T06:21:12.811Z,40.67
2019-03-31T06:23:42.413Z,39.93
2019-03-31T06:26:11.968Z,39.83
2019-03-31T06:28:41.527Z,41.47
2019-03-31T06:31:11.171Z,39.73
2019-03-31T06:33:40.731Z,40.00
2019-03-31T06:36:10.374Z,40.67
2019-03-31T06:38:39.965Z,39.27
2019-03-31T06:41:09.539Z,39.77
2019-03-31T06:43:39.136Z,39.33
2019-03-31T06:46:08.713Z,38.80
2019-03-31T06:48:38.304Z,39.43
2019-03-31T06:51:08.735Z,39.20
2019-03-31T06:53:38.333Z,37.73
2019-03-31T06:56:07.925Z,37.13
2019-03-31T06:58:37.504Z,36.87
2019-03-31T07:01:07.107Z,35.43
2019-03-31T07:03:36.680Z,34.77
2019-03-31T07:06:06.259Z,33.60
2019-03-31T07:08:35.828Z,35.30
2019-03-31T07:11:05.386Z,33.93
2019-03-31T07:13:35.076Z,37.00
2019-03-31T07:16:04.654Z,36.10
2019-03-31T07:18:34.233Z,35.67
2019-03-31T07:21:03.820Z,36.07
2019-03-31T07:23:33.373Z,36.33
2019-03-31T07:26:02.973Z,37.33
2019-03-31T07:28:32.532Z,38.60
2019-03-31T07:31:02.093Z,37.40
2019-03-31T07:33:31.702Z,35.70
2019-03-31T07:36:01.258Z,34.27
2019-03-31T07:38:38.863Z,31.60
2019-03-31T07:41:12.608Z,32.53
2019-03-31T07:43:33.267Z,31.60
2019-03-31T07:46:02.829Z,29.73
2019-03-31T07:48:32.412Z,31.23
2019-03-31T07:51:01.999Z,31.60
2019-03-31T07:53:31.555Z,32.73
2019-03-31T07:56:01.280Z,31.13
2019-03-31T07:58:30.841Z,31.53
2019-03-31T08:01:00.417Z,32.50
2019-03-31T08:03:29.984Z,31.50
2019-03-31T08:05:59.563Z,32.43
2019-03-31T08:08:29.183Z,30.50
2019-03-31T08:10:58.765Z,30.87
2019-03-31T08:13:28.342Z,31.73
2019-03-31T08:15:59.274Z,31.00
2019-03-31T08:18:28.838Z,31.10
2019-03-31T08:20:58.433Z,29.93
2019-03-31T08:23:28.004Z,30.37
2019-03-31T08:25:57.700Z,30.57
2019-03-31T08:28:27.275Z,31.47
2019-03-31T08:30:56.867Z,27.33
2019-03-31T08:33:26.470Z,28.70
2019-03-31T08:35:56.324Z,28.50
2019-03-31T08:38:25.921Z,28.50
2019-03-31T08:40:55.763Z,29.20
2019-03-31T08:43:25.338Z,30.37
2019-03-31T08:45:54.954Z,28.73
2019-03-31T08:48:24.503Z,28.10
2019-03-31T08:50:54.198Z,26.40
2019-03-31T08:53:23.852Z,24.20
2019-03-31T08:55:53.404Z,25.60
2019-03-31T08:58:22.995Z,26.87
2019-03-31T09:00:54.146Z,26.43
2019-03-31T09:03:24.056Z,26.47
2019-03-31T09:06:01.510Z,25.77
2019-03-31T09:08:24.830Z,30.57
2019-03-31T09:10:56.340Z,28.00
2019-03-31T09:13:25.945Z,23.35
2019-03-31T09:15:55.532Z,26.07
2019-03-31T09:18:25.172Z,25.35
2019-03-31T09:21:15.213Z,25.72
2019-03-31T09:23:44.818Z,25.65
2019-03-31T09:26:15.375Z,23.70
2019-03-31T09:28:44.966Z,24.60
2019-03-31T09:31:14.557Z,24.45
2019-03-31T09:33:44.126Z,24.47
2019-03-31T09:36:16.569Z,22.00
2019-03-31T09:38:48.412Z,21.90
2019-03-31T09:41:17.541Z,22.37
2019-03-31T09:43:47.105Z,21.10
2019-03-31T09:46:16.681Z,19.82
2019-03-31T09:48:46.264Z,19.15
2019-03-31T09:51:15.826Z,19.30
2019-03-31T09:53:45.582Z,18.27
2019-03-31T09:56:15.414Z,17.87
2019-03-31T09:58:45.122Z,18.20
2019-03-31T10:01:14.694Z,19.15
2019-03-31T10:03:44.259Z,18.07
2019-03-31T10:06:13.850Z,18.25
2019-03-31T10:08:43.412Z,18.45
2019-03-31T10:11:13.036Z,19.37
2019-03-31T10:13:42.614Z,19.90
2019-03-31T10:16:12.183Z,20.82
2019-03-31T10:18:41.784Z,20.92
2019-03-31T10:21:11.354Z,20.95
2019-03-31T10:23:40.942Z,19.05
2019-03-31T10:26:10.516Z,19.77
2019-03-31T10:28:40.090Z,18.92
2019-03-31T10:31:09.681Z,19.07
2019-03-31T10:33:39.315Z,20.05
2019-03-31T10:36:08.927Z,20.17
2019-03-31T10:38:38.616Z,20.25
2019-03-31T10:41:08.191Z,16.67
2019-03-31T10:43:37.759Z,18.87
2019-03-31T10:46:07.341Z,16.60
2019-03-31T10:48:36.955Z,15.67
2019-03-31T10:51:06.540Z,16.20
2019-03-31T10:53:36.230Z,16.17
2019-03-31T10:56:05.821Z,16.33
2019-03-31T10:58:35.379Z,16.40
2019-03-31T11:01:04.979Z,16.93
2019-03-31T11:03:34.537Z,19.63
2019-03-31T11:06:04.130Z,14.67
2019-03-31T11:08:33.717Z,16.27
2019-03-31T11:11:03.291Z,11.07
2019-03-31T11:13:32.952Z,11.97
2019-03-31T11:16:03.523Z,11.90
2019-03-31T11:18:33.100Z,11.47
2019-03-31T11:21:04.239Z,15.57
2019-03-31T11:23:33.940Z,12.57
2019-03-31T11:26:03.548Z,12.30
2019-03-31T11:28:33.234Z,12.90
2019-03-31T11:31:03.627Z,12.80
2019-03-31T11:33:33.280Z,11.60
2019-03-31T11:36:02.972Z,13.50
2019-03-31T11:38:32.551Z,12.93
2019-03-31T11:41:03.071Z,13.27
2019-03-31T11:43:33.525Z,14.13
2019-03-31T11:46:03.444Z,13.67
2019-03-31T11:48:33.186Z,14.37
2019-03-31T11:51:02.742Z,13.17
2019-03-31T11:53:32.352Z,12.63
2019-03-31T11:56:01.959Z,14.23
2019-03-31T11:58:32.414Z,14.77
2019-03-31T12:01:02.121Z,14.57
2019-03-31T12:03:31.698Z,14.43
2019-03-31T12:06:01.279Z,14.40
2019-03-31T12:08:30.897Z,15.10
2019-03-31T12:11:00.455Z,15.43
2019-03-31T12:13:30.032Z,16.47
2019-03-31T12:15:59.605Z,15.10
2019-03-31T12:18:29.190Z,16.20
2019-03-31T12:20:58.821Z,15.20
2019-03-31T12:23:28.379Z,14.97
2019-03-31T12:25:57.972Z,15.87
2019-03-31T12:28:27.547Z,15.83
2019-03-31T12:30:57.110Z,16.07
2019-03-31T12:33:26.706Z,17.47
2019-03-31T12:35:56.258Z,18.73
2019-03-31T12:38:25.842Z,17.77
2019-03-31T12:40:55.413Z,19.00
2019-03-31T12:43:25.234Z,17.57
2019-03-31T12:45:54.849Z,18.17
2019-03-31T12:48:24.416Z,16.93
2019-03-31T12:50:59.451Z,17.13
2019-03-31T12:53:29.260Z,19.63
2019-03-31T12:56:00.358Z,21.10
2019-03-31T12:58:30.076Z,20.83
2019-03-31T13:00:59.651Z,19.10
2019-03-31T13:03:29.459Z,18.73
2019-03-31T13:05:59.019Z,18.13
2019-03-31T13:08:28.591Z,18.03
2019-03-31T13:10:58.166Z,16.10
2019-03-31T13:13:27.786Z,15.43
2019-03-31T13:15:58.409Z,13.03
2019-03-31T13:18:28.358Z,13.60
2019-03-31T13:20:57.970Z,14.33
2019-03-31T13:23:27.549Z,16.23
2019-03-31T13:25:57.123Z,17.00
2019-03-31T13:28:26.743Z,15.13
2019-03-31T13:30:56.352Z,15.20
2019-03-31T13:33:26.003Z,13.23
2019-03-31T13:35:55.598Z,12.43
2019-03-31T13:38:26.244Z,13.83
2019-03-31T13:40:56.017Z,12.77
2019-03-31T13:43:26.563Z,11.77
2019-03-31T13:46:00.252Z,13.20
2019-03-31T13:48:31.112Z,13.90
2019-03-31T13:51:00.875Z,13.17
2019-03-31T13:53:30.493Z,11.73
2019-03-31T13:56:00.175Z,10.70
2019-03-31T13:58:30.527Z,10.93
2019-03-31T14:01:00.564Z,13.00
2019-03-31T14:03:30.104Z,12.30
2019-03-31T14:05:59.668Z,10.93
2019-03-31T14:08:29.286Z,10.90
2019-03-31T14:10:58.845Z,10.70
2019-03-31T14:13:28.404Z,10.07
2019-03-31T14:15:57.971Z,10.37
2019-03-31T14:18:29.146Z,9.83
2019-03-31T14:20:58.733Z,10.00
2019-03-31T14:23:28.286Z,11.00
2019-03-31T14:25:57.877Z,10.70
2019-03-31T14:28:27.443Z,9.77
2019-03-31T14:30:57.006Z,11.53
2019-03-31T14:33:26.630Z,10.50
2019-03-31T14:35:57.186Z,9.73
2019-03-31T14:38:39.412Z,13.80
2019-03-31T14:40:57.974Z,13.13
2019-03-31T14:43:28.122Z,9.67
2019-03-31T14:45:58.028Z,10.97
2019-03-31T14:48:27.811Z,10.47
2019-03-31T14:50:57.375Z,10.73
2019-03-31T14:53:26.970Z,11.23
2019-03-31T14:55:56.541Z,11.13
2019-03-31T14:58:26.164Z,10.80
2019-03-31T15:00:55.710Z,10.97
2019-03-31T15:03:25.470Z,13.20
2019-03-31T15:05:55.042Z,12.47
2019-03-31T15:08:24.640Z,12.70
2019-03-31T15:10:54.238Z,12.10
2019-03-31T15:13:23.792Z,12.17
2019-03-31T15:15:53.357Z,11.33
2019-03-31T15:18:22.928Z,11.50
2019-03-31T15:20:52.506Z,10.53
2019-03-31T15:23:29.116Z,12.00
2019-03-31T15:25:53.319Z,10.83
2019-03-31T15:28:22.925Z,11.27
2019-03-31T15:30:52.495Z,10.07
2019-03-31T15:33:22.073Z,10.53
2019-03-31T15:35:51.647Z,9.80
2019-03-31T15:38:21.211Z,10.00
2019-03-31T15:40:50.774Z,9.97
2019-03-31T15:43:20.333Z,10.70
2019-03-31T15:45:49.922Z,11.47
2019-03-31T15:48:19.524Z,11.10
2019-03-31T15:50:49.109Z,10.30
2019-03-31T15:53:18.677Z,10.73
2019-03-31T15:55:48.236Z,11.13
2019-03-31T15:58:18.759Z,10.60
2019-03-31T16:00:48.338Z,11.40
2019-03-31T16:03:17.907Z,11.50
2019-03-31T16:05:47.480Z,11.03
2019-03-31T16:08:17.071Z,11.67
2019-03-31T16:10:46.975Z,12.23
2019-03-31T16:13:16.529Z,12.33
2019-03-31T16:15:46.160Z,13.00
2019-03-31T16:18:15.730Z,12.37
2019-03-31T16:20:45.295Z,12.03
2019-03-31T16:23:14.943Z,12.73
2019-03-31T16:25:46.151Z,13.33
2019-03-31T16:28:28.542Z,13.77
2019-03-31T16:30:59.931Z,14.23
2019-03-31T16:33:29.543Z,13.67
2019-03-31T16:36:00.690Z,13.60
2019-03-31T16:38:30.315Z,12.97
2019-03-31T16:40:59.886Z,12.83
2019-03-31T16:43:30.461Z,13.53
2019-03-31T16:46:00.039Z,13.50
2019-03-31T16:48:29.595Z,13.93
2019-03-31T16:50:59.299Z,13.23
2019-03-31T16:53:28.858Z,14.57
2019-03-31T16:55:58.431Z,14.47
2019-03-31T16:58:28.123Z,14.97
2019-03-31T17:00:57.702Z,15.83
2019-03-31T17:03:27.314Z,17.07
2019-03-31T17:05:56.887Z,18.17
2019-03-31T17:08:26.453Z,17.80
2019-03-31T17:10:56.031Z,18.60
2019-03-31T17:13:25.700Z,18.97
2019-03-31T17:15:55.290Z,19.87
2019-03-31T17:18:24.852Z,20.60
2019-03-31T17:20:54.407Z,19.70
2019-03-31T17:23:23.989Z,20.30
2019-03-31T17:25:53.546Z,18.97
2019-03-31T17:28:23.565Z,20.30
2019-03-31T17:30:53.116Z,20.67
2019-03-31T17:33:22.696Z,21.30
2019-03-31T17:35:52.591Z,21.30
2019-03-31T17:38:22.162Z,21.00
2019-03-31T17:40:52.655Z,22.17
2019-03-31T17:43:22.552Z,22.40
2019-03-31T17:45:52.171Z,23.63
2019-03-31T17:48:21.720Z,22.30
2019-03-31T17:50:51.278Z,24.03
2019-03-31T17:53:20.962Z,23.37
2019-03-31T17:55:51.559Z,24.70
2019-03-31T17:58:21.159Z,26.50
2019-03-31T18:00:50.735Z,28.40
2019-03-31T18:03:20.323Z,34.07
2019-03-31T18:05:49.921Z,31.37
2019-03-31T18:08:19.572Z,33.97
2019-03-31T18:10:49.304Z,34.00
2019-03-31T18:13:18.864Z,34.20
2019-03-31T18:15:48.446Z,33.87
2019-03-31T18:18:18.016Z,33.03
2019-03-31T18:20:47.575Z,32.47
2019-03-31T18:23:17.207Z,32.47
2019-03-31T18:25:47.042Z,31.70
2019-03-31T18:28:16.641Z,31.67
2019-03-31T18:30:46.204Z,31.97
2019-03-31T18:33:15.767Z,31.80
2019-03-31T18:35:45.370Z,32.53
2019-03-31T18:38:14.927Z,33.07
2019-03-31T18:40:44.636Z,33.10
2019-03-31T18:43:14.267Z,32.60
2019-03-31T18:45:43.827Z,30.83
2019-03-31T18:48:13.750Z,32.53
2019-03-31T18:50:43.594Z,31.43
2019-03-31T18:53:14.719Z,30.97
2019-03-31T18:55:48.670Z,30.50
2019-03-31T18:58:19.825Z,30.77
2019-03-31T19:01:07.464Z,30.20
2019-03-31T19:03:47.522Z,28.63
2019-03-31T19:06:24.311Z,28.80
2019-03-31T19:08:57.998Z,29.10
2019-03-31T19:11:45.447Z,28.87
2019-03-31T19:14:31.876Z,29.23
2019-03-31T19:17:08.931Z,27.13
2019-03-31T19:19:48.915Z,28.67
2019-03-31T19:22:23.103Z,27.97
2019-03-31T19:25:06.103Z,27.57
2019-03-31T19:27:56.434Z,26.70
2019-03-31T19:30:30.446Z,25.97
2019-03-31T19:33:17.819Z,26.07
2019-03-31T19:35:57.782Z,26.13
2019-03-31T19:38:31.436Z,25.70
2019-03-31T19:41:05.315Z,25.83
2019-03-31T19:43:36.484Z,24.20
2019-03-31T19:46:07.626Z,23.63
2019-03-31T19:48:38.939Z,23.93
2019-03-31T19:51:25.219Z,23.40
2019-03-31T19:53:56.408Z,22.73
2019-03-31T19:56:27.518Z,22.57
2019-03-31T19:59:07.932Z,22.20
2019-03-31T20:01:44.787Z,22.67
2019-03-31T20:04:32.240Z,21.73
2019-03-31T20:07:03.363Z,22.20
2019-03-31T20:09:37.547Z,22.30
2019-03-31T20:12:24.976Z,21.13
2019-03-31T20:15:13.482Z,20.00
2019-03-31T20:17:44.607Z,21.07
2019-03-31T20:20:15.813Z,21.17
2019-03-31T20:23:03.190Z,20.57
2019-03-31T20:25:52.523Z,19.27
2019-03-31T20:28:35.990Z,19.43
2019-03-31T20:31:10.186Z,18.50
2019-03-31T20:33:44.056Z,18.20
2019-03-31T20:36:15.235Z,18.23
2019-03-31T20:38:46.366Z,18.43
2019-03-31T20:41:35.331Z,19.20
2019-03-31T20:44:04.878Z,19.50
2019-03-31T20:46:34.448Z,18.27
2019-03-31T20:49:04.019Z,19.13
2019-03-31T20:51:33.674Z,18.27
2019-03-31T20:54:03.320Z,18.43
2019-03-31T20:56:32.880Z,17.93
2019-03-31T20:59:02.431Z,18.37
2019-03-31T21:01:32.161Z,18.37
2019-03-31T21:04:02.730Z,17.93
2019-03-31T21:06:32.346Z,17.27
2019-03-31T21:09:01.908Z,17.70
2019-03-31T21:11:32.683Z,17.90
2019-03-31T21:14:03.363Z,17.17
2019-03-31T21:16:32.923Z,18.20
2019-03-31T21:19:02.494Z,17.57
2019-03-31T21:21:32.047Z,18.57
2019-03-31T21:24:01.636Z,17.43
2019-03-31T21:26:32.184Z,17.63
2019-03-31T21:29:01.769Z,18.93
2019-03-31T21:31:31.343Z,17.97
2019-03-31T21:34:02.479Z,17.30
2019-03-31T21:36:32.092Z,17.17
2019-03-31T21:39:01.669Z,17.67
2019-03-31T21:41:32.798Z,16.97
2019-03-31T21:44:02.351Z,17.83
2019-03-31T21:46:31.933Z,16.93
2019-03-31T21:49:01.507Z,17.27
2019-03-31T21:51:31.067Z,16.20
2019-03-31T21:54:00.667Z,16.40
2019-03-31T21:56:30.358Z,16.73
2019-03-31T21:59:00.000Z,15.47
2019-03-31T22:01:29.779Z,15.50
2019-03-31T22:04:00.290Z,13.60
2019-03-31T22:06:29.923Z,12.80
2019-03-31T22:08:59.554Z,15.23
2019-03-31T22:11:29.165Z,14.17
2019-03-31T22:13:58.815Z,14.43
2019-03-31T22:16:28.385Z,14.33
2019-03-31T22:18:57.967Z,14.00
2019-03-31T22:21:27.906Z,14.70
2019-03-31T22:23:58.332Z,14.03
2019-03-31T22:26:27.955Z,13.43
2019-03-31T22:28:57.520Z,13.60
2019-03-31T22:31:27.133Z,12.57
2019-03-31T22:33:56.688Z,14.33
2019-03-31T22:36:26.356Z,13.03
2019-03-31T22:38:55.928Z,13.57
2019-03-31T22:41:25.519Z,13.37
2019-03-31T22:43:55.146Z,14.50
2019-03-31T22:46:24.699Z,14.17
2019-03-31T22:48:54.283Z,13.30
2019-03-31T22:51:23.844Z,13.43
2019-03-31T22:53:53.403Z,14.27
2019-03-31T22:56:22.994Z,13.73
2019-03-31T22:58:52.555Z,14.87
2019-03-31T23:01:22.314Z,15.60
2019-03-31T23:03:51.892Z,14.07
2019-03-31T23:06:21.522Z,15.70
2019-03-31T23:08:51.131Z,14.77
2019-03-31T23:11:20.693Z,15.30
2019-03-31T23:13:50.352Z,14.77
2019-03-31T23:16:19.918Z,14.17
2019-03-31T23:18:50.593Z,14.93
2019-03-31T23:21:21.079Z,15.13
2019-03-31T23:23:50.632Z,14.53
2019-03-31T23:26:20.193Z,15.23
2019-03-31T23:28:49.764Z,14.73
2019-03-31T23:31:19.339Z,15.47
2019-03-31T23:33:48.938Z,15.67
2019-03-31T23:36:18.491Z,15.93
2019-03-31T23:38:48.080Z,15.17
2019-03-31T23:41:17.639Z,14.43
2019-03-31T23:43:47.197Z,14.37
2019-03-31T23:46:16.800Z,14.10
2019-03-31T23:48:46.347Z,14.57
2019-03-31T23:51:15.920Z,14.67
2019-03-31T23:53:45.491Z,14.57
2019-03-31T23:56:15.032Z,14.30
2019-03-31T23:58:44.643Z,15.47
